Brandenburg, KY (40108)

6:53 PM EST on February 08, 2016 (GMT -0500)
Old Weldon | | Change Station
CLOSE
Current Station
Personal Weather Station
Location: Brandenburg, KY
Elevation: 636 ft
Nearby Weather Stations
Active Advisory: Special Statement

Elev 636 ft 37.97 °N, 86.13 °W | Updated 1 minute ago

Overcast
Overcast
28.6 °F
Feels Like 24 °F
N
4.0
Wind Variable Wind from West
Gusts 6.0 mph

Today
High -- | Low -- °F
--% Chance of Precip.
Yesterday
High -- | Low -- °F
Precip. -- in
Pressure 29.79 in
Visibility 10.0 miles
Clouds Mostly Cloudy 4700 ft
Overcast 5500 ft
Windchill 24 °F
Dew Point 25 °F
Humidity 86%
Rainfall 0.17 in
Snow Depth Not available.
7:42 AM 6:15 PM
New Moon, 0% visible
SPECI KFTK 082341Z AUTO 29013G18KT 10SM -SN BKN047 OVC055 M02/M06 A2979 RMK AO2 SNE10SNB18E29SNB41
Pressure 29.79 in
Visibility 10.0 miles
Clouds Mostly Cloudy 4700 ft
Overcast 5500 ft
Windchill 24 °F
Dew Point 25 °F
Humidity 86%
Rainfall 0.17 in
Snow Depth Not available.
7:42 AM 6:15 PM
New Moon, 0% visible
SPECI KFTK 082341Z AUTO 29013G18KT 10SM -SN BKN047 OVC055 M02/M06 A2979 RMK AO2 SNE10SNB18E29SNB41

10-Day Weather Forecast

Almanac

Astronomy

Feb. 08, 2016 Rise Set
Actual Time
Civil Twilight
Nautical Twilight
Astronomical Twilight
Moon
Length of Visible Light
Length of Day
Tomorrow will be .
, % of the Moon is Illuminated

Today's Extremes

State Highs State Lows

Community

WunderPhotos

Upload Photos

1,891,527 photos uploaded!

WunderBlog® & News

Nearby

Air Quality

  Air Quality AQ Index Pollutant
Not available.

Snow Depth

Station Depth Elevation

Earthquake Activity

City Distance Mag. Time & Date
Minimum magnitude displayed is 2.5.

Coastal Water Temperatures

Place Temperature

Stations

Nearby Weather Stations

Station Location Temp. Windchill Dew Point Humidity Wind Precip. Elev Updated Type
                   

Watches & Warnings

Special Statement
Issued: 2:54 PM CST Feb. 8, 2016 – National Weather Service

... Snow showers this afternoon through Tuesday evening...

Colder air will filter into the region late this afternoon
producing scattered to numerous moderate snow showers through at
least Tuesday evening. Each passing snow shower may quickly
produce a light coating of snow creating slick spots especially on
untreated roadways. Overall up to 2 inches of snow is possible
through Tuesday evening.. in addition... gusty winds combined with
the snow showers may cause reductions in visibility at times. Use
caution if planning to travel this evening through Tuesday
evening.


Rjs